Sandy Ridge, North Carolina
Current Conditions -  °F | °C
As of 2:55 PM on Saturday 25 Oct 2014 (Local Time) from KMTV Reporting Station
Clear Clear  
Wind Chill: 74°   Ceiling: Unl
Heat Index: 74°   Visibility: 10mi
Dew Point: 40°   Wind: 0mph
Humidity: 29%   Direction: NA
Pressure: 29.95"   Gusts: NA
Location:  36.5°N, 80.1°W
Report Text: KMTV 251855Z AUTO 00000KT 10SM CLR 24/04 A2995 RMK AO2 T02350043
Loading
Personal Weather Stations






























Interactive Weather Map
Tropical Storm Tracking
New forecast layout! Learn more

10-Day Weather Forecast

Advertisements
Track Severe Weather on mobile